Time;durP1;ratioP1;P1;durP2;ratioP2;P2;SDS_P1;SDS_P2;PMS_P1;PMS_P2;Temp;Humidity;BMP_temperature;BMP_pressure;BME280_temperature;BME280_humidity;BME280_pressure;Samples;Min_cycle;Max_cycle;Signal;HPM_P1;HPM_P2
2023/06/06 00:01:51;;;;;;;21.23;11.60;;;;;;;;;;5070778;28;20044;-60
2023/06/06 00:04:17;;;;;;;23.33;11.70;;;;;;;;;;5070848;28;20592;-59
2023/06/06 00:06:44;;;;;;;32.17;13.20;;;;;;;;;;5069702;28;20045;-60
2023/06/06 00:09:13;;;;;;;22.10;11.80;;;;;;;;;;5069507;28;20048;-59
2023/06/06 00:11:39;;;;;;;22.43;11.43;;;;;;;;;;5069926;28;20058;-60
2023/06/06 00:14:09;;;;;;;32.43;12.47;;;;;;;;;;5069941;28;20094;-60
2023/06/06 00:16:36;;;;;;;27.70;12.47;;;;;;;;;;5069472;28;20048;-60
2023/06/06 00:19:03;;;;;;;30.73;13.57;;;;;;;;;;5069813;28;20063;-60
2023/06/06 00:21:32;;;;;;;26.60;13.67;;;;;;;;;;5069455;28;20051;-60
2023/06/06 00:23:59;;;;;;;34.30;14.30;;;;;;;;;;5069525;28;20574;-60
2023/06/06 00:26:26;;;;;;;31.47;14.07;;;;;;;;;;5069414;28;20041;-60
2023/06/06 00:28:52;;;;;;;32.90;14.97;;;;;;;;;;5069696;28;20052;-60
2023/06/06 00:31:18;;;;;;;31.10;14.00;;;;;;;;;;5051312;28;20133;-60
2023/06/06 00:33:44;;;;;;;33.40;15.63;;;;;;;;;;5068624;28;20040;-59
2023/06/06 00:36:11;;;;;;;30.87;14.10;;;;;;;;;;5069155;28;20044;-60
2023/06/06 00:38:37;;;;;;;33.23;13.30;;;;;;;;;;5069486;28;20050;-60
2023/06/06 00:41:03;;;;;;;33.60;14.13;;;;;;;;;;5069675;28;20044;-60
2023/06/06 00:43:30;;;;;;;30.00;13.27;;;;;;;;;;5068873;28;20513;-60
2023/06/06 00:45:56;;;;;;;31.00;14.37;;;;;;;;;;5069313;28;20094;-60
2023/06/06 00:48:23;;;;;;;32.27;13.70;;;;;;;;;;5069120;28;20049;-60
2023/06/06 00:50:50;;;;;;;22.57;13.00;;;;;;;;;;5069166;28;20044;-60
2023/06/06 00:53:16;;;;;;;30.40;13.57;;;;;;;;;;5068242;28;20113;-59
2023/06/06 00:55:42;;;;;;;25.80;12.60;;;;;;;;;;5068987;28;20045;-60
2023/06/06 00:58:09;;;;;;;31.73;13.00;;;;;;;;;;5068704;28;20476;-60
2023/06/06 01:00:37;;;;;;;31.17;15.20;;;;;;;;;;5069199;28;20124;-59
2023/06/06 01:03:03;;;;;;;37.63;15.27;;;;;;;;;;5068216;28;20033;-60
2023/06/06 01:05:29;;;;;;;32.57;14.50;;;;;;;;;;5068547;28;20494;-59
2023/06/06 01:07:56;;;;;;;31.23;14.50;;;;;;;;;;5069255;28;20079;-60
2023/06/06 01:10:22;;;;;;;26.83;13.90;;;;;;;;;;5068917;28;20463;-60
2023/06/06 01:13:07;;;;;;;29.97;14.07;;;;;;;;;;5068056;28;20048;-60
2023/06/06 01:15:40;;;;;;;32.67;15.17;;;;;;;;;;5067851;28;20503;-60
2023/06/06 01:18:07;;;;;;;41.47;16.02;;;;;;;;;;5068532;28;20132;-59
2023/06/06 01:20:34;;;;;;;31.87;14.87;;;;;;;;;;5069065;28;20047;-60
2023/06/06 01:23:00;;;;;;;31.77;14.47;;;;;;;;;;5067322;28;20346;-60
2023/06/06 01:25:27;;;;;;;28.33;14.53;;;;;;;;;;5068740;28;20139;-60
2023/06/06 01:27:55;;;;;;;35.17;14.17;;;;;;;;;;5068181;28;20534;-60
2023/06/06 01:30:26;;;;;;;32.27;15.43;;;;;;;;;;5068413;28;20052;-60
2023/06/06 01:33:01;;;;;;;34.90;13.33;;;;;;;;;;5067286;28;20053;-60
2023/06/06 01:35:43;;;;;;;31.80;14.07;;;;;;;;;;5068542;28;20083;-60
2023/06/06 01:38:20;;;;;;;35.90;15.00;;;;;;;;;;5068476;28;20080;-60
2023/06/06 01:40:47;;;;;;;34.73;14.43;;;;;;;;;;5068376;28;20456;-60
2023/06/06 01:43:15;;;;;;;35.33;15.13;;;;;;;;;;5068132;28;20474;-60
2023/06/06 01:45:42;;;;;;;31.77;14.63;;;;;;;;;;5068598;28;20048;-60
2023/06/06 01:48:08;;;;;;;36.87;15.27;;;;;;;;;;5066464;28;20105;-60
2023/06/06 01:50:34;;;;;;;28.93;14.37;;;;;;;;;;5068461;28;20083;-60
2023/06/06 01:53:01;;;;;;;30.20;14.03;;;;;;;;;;5067636;28;20048;-60
2023/06/06 01:55:27;;;;;;;37.83;15.27;;;;;;;;;;5067833;28;20127;-60
2023/06/06 01:57:53;;;;;;;35.47;15.10;;;;;;;;;;5068347;28;20044;-60
2023/06/06 02:00:20;;;;;;;29.37;13.97;;;;;;;;;;5068210;28;20480;-59
2023/06/06 02:02:46;;;;;;;42.77;15.87;;;;;;;;;;5068369;28;20128;-60
2023/06/06 02:05:12;;;;;;;30.67;14.33;;;;;;;;;;5067402;28;20102;-60
2023/06/06 02:07:41;;;;;;;32.27;13.10;;;;;;;;;;5068351;28;20048;-60
2023/06/06 02:10:07;;;;;;;37.27;13.87;;;;;;;;;;5068383;28;20044;-60
2023/06/06 02:12:33;;;;;;;31.80;14.43;;;;;;;;;;5068297;28;20067;-60
2023/06/06 02:15:00;;;;;;;35.47;14.37;;;;;;;;;;5067278;28;20048;-59
2023/06/06 02:17:26;;;;;;;39.37;17.10;;;;;;;;;;5067564;28;20044;-60
2023/06/06 02:19:53;;;;;;;32.33;14.40;;;;;;;;;;5067877;28;20048;-60
2023/06/06 02:22:19;;;;;;;34.03;14.43;;;;;;;;;;5068303;28;20098;-60
2023/06/06 02:24:46;;;;;;;37.20;15.57;;;;;;;;;;5067313;28;20102;-60
2023/06/06 02:27:14;;;;;;;34.57;15.10;;;;;;;;;;5067697;28;20044;-60
2023/06/06 02:29:40;;;;;;;37.77;17.07;;;;;;;;;;5067787;28;20047;-60
2023/06/06 02:32:07;;;;;;;40.67;15.77;;;;;;;;;;5067436;28;20057;-60
2023/06/06 02:34:33;;;;;;;38.17;16.67;;;;;;;;;;5067648;28;20045;-60
2023/06/06 02:37:00;;;;;;;40.13;16.03;;;;;;;;;;5067894;28;20047;-60
2023/06/06 02:39:26;;;;;;;41.77;17.13;;;;;;;;;;5067689;28;20048;-60
2023/06/06 02:41:52;;;;;;;36.97;15.07;;;;;;;;;;5071941;28;20075;-60
2023/06/06 02:44:19;;;;;;;34.93;14.37;;;;;;;;;;5071357;28;20079;-60
2023/06/06 02:46:45;;;;;;;43.60;16.17;;;;;;;;;;5070633;28;20422;-60
2023/06/06 02:49:11;;;;;;;33.60;14.57;;;;;;;;;;5071727;28;20051;-60
2023/06/06 02:51:37;;;;;;;30.97;14.27;;;;;;;;;;5070895;28;20406;-59
2023/06/06 02:54:03;;;;;;;43.30;17.40;;;;;;;;;;5071130;28;20394;-60
2023/06/06 02:56:29;;;;;;;38.03;15.23;;;;;;;;;;5071404;28;20427;-59
2023/06/06 02:58:56;;;;;;;37.97;14.90;;;;;;;;;;5071523;28;20040;-60
2023/06/06 03:01:22;;;;;;;37.47;15.53;;;;;;;;;;5071000;28;20040;-59
2023/06/06 03:03:49;;;;;;;30.47;14.93;;;;;;;;;;5071511;28;20094;-60
2023/06/06 03:06:20;;;;;;;30.80;14.43;;;;;;;;;;5070952;28;20509;-60
2023/06/06 03:08:47;;;;;;;28.53;13.40;;;;;;;;;;5071401;28;20041;-60
2023/06/06 03:11:13;;;;;;;38.60;15.93;;;;;;;;;;5070569;28;20053;-60
2023/06/06 03:13:39;;;;;;;28.47;13.57;;;;;;;;;;5070477;28;20130;-59
2023/06/06 03:16:05;;;;;;;34.90;14.67;;;;;;;;;;5071102;28;20513;-60
2023/06/06 03:18:32;;;;;;;38.37;16.50;;;;;;;;;;5071270;28;20045;-60
2023/06/06 03:20:58;;;;;;;41.43;15.93;;;;;;;;;;5070952;28;20083;-60
2023/06/06 03:23:24;;;;;;;28.63;14.17;;;;;;;;;;5051446;28;20080;-60
2023/06/06 03:25:51;;;;;;;39.70;16.07;;;;;;;;;;5069555;28;20055;-60
2023/06/06 03:28:20;;;;;;;29.90;14.00;;;;;;;;;;5070437;28;20048;-60
2023/06/06 03:30:47;;;;;;;40.87;16.50;;;;;;;;;;5070515;28;20513;-60
2023/06/06 03:33:13;;;;;;;38.53;15.40;;;;;;;;;;5069510;28;20056;-60
2023/06/06 03:35:39;;;;;;;47.47;17.67;;;;;;;;;;5070704;28;20052;-60
2023/06/06 03:38:05;;;;;;;31.50;14.73;;;;;;;;;;5070256;28;20064;-60
2023/06/06 03:40:31;;;;;;;38.37;17.33;;;;;;;;;;5070169;28;20049;-60
2023/06/06 03:42:57;;;;;;;31.87;15.03;;;;;;;;;;5068829;28;20553;-60
2023/06/06 03:45:23;;;;;;;30.53;15.90;;;;;;;;;;5070150;28;20109;-60
2023/06/06 03:47:50;;;;;;;30.37;14.47;;;;;;;;;;5070447;28;20551;-60
2023/06/06 03:50:16;;;;;;;33.90;15.73;;;;;;;;;;5070347;28;20062;-60
2023/06/06 03:52:42;;;;;;;37.17;16.70;;;;;;;;;;5068434;28;20529;-60
2023/06/06 03:55:09;;;;;;;45.73;16.90;;;;;;;;;;5070091;28;20044;-60
2023/06/06 03:57:36;;;;;;;56.43;18.17;;;;;;;;;;5069352;28;20041;-60
2023/06/06 04:00:05;;;;;;;31.97;15.23;;;;;;;;;;5070317;28;20503;-60
2023/06/06 04:02:31;;;;;;;41.67;16.67;;;;;;;;;;5069726;28;20049;-60
2023/06/06 04:05:01;;;;;;;41.57;18.40;;;;;;;;;;5068984;28;20600;-60
2023/06/06 04:07:28;;;;;;;42.03;16.80;;;;;;;;;;5070014;28;20071;-60
2023/06/06 04:09:55;;;;;;;42.17;18.13;;;;;;;;;;5069733;28;20052;-60
2023/06/06 04:12:21;;;;;;;38.90;16.23;;;;;;;;;;5068551;28;20047;-60
2023/06/06 04:14:47;;;;;;;40.67;17.93;;;;;;;;;;5069132;28;20044;-60
2023/06/06 04:17:13;;;;;;;36.33;17.67;;;;;;;;;;5069825;28;20059;-60
2023/06/06 04:19:39;;;;;;;38.63;17.03;;;;;;;;;;5069626;28;20131;-60
2023/06/06 04:22:06;;;;;;;36.43;17.47;;;;;;;;;;5069087;28;20483;-60
2023/06/06 04:24:32;;;;;;;45.60;20.60;;;;;;;;;;5069615;28;20054;-60
2023/06/06 04:27:03;;;;;;;34.57;16.30;;;;;;;;;;5069166;28;20052;-60
2023/06/06 04:29:33;;;;;;;33.43;16.37;;;;;;;;;;5069719;28;20044;-60
2023/06/06 04:32:00;;;;;;;39.37;18.47;;;;;;;;;;5068700;28;20052;-60
2023/06/06 04:34:29;;;;;;;44.93;19.10;;;;;;;;;;5068651;28;20052;-61
2023/06/06 04:37:05;;;;;;;41.43;16.60;;;;;;;;;;5069667;28;20079;-60
2023/06/06 04:39:34;;;;;;;40.70;16.60;;;;;;;;;;5069675;28;20040;-60
2023/06/06 04:42:04;;;;;;;36.10;16.23;;;;;;;;;;5067861;28;20048;-60
2023/06/06 04:44:31;;;;;;;42.13;19.70;;;;;;;;;;5069254;28;20337;-60
2023/06/06 04:47:01;;;;;;;31.23;15.37;;;;;;;;;;5069374;28;20448;-60
2023/06/06 04:49:38;;;;;;;41.53;17.33;;;;;;;;;;5069058;28;20045;-60
2023/06/06 04:52:05;;;;;;;31.90;15.50;;;;;;;;;;5067991;28;20093;-60
2023/06/06 04:54:31;;;;;;;40.47;17.80;;;;;;;;;;5069097;28;20087;-60
2023/06/06 04:56:58;;;;;;;39.03;16.90;;;;;;;;;;5068071;28;20053;-60
2023/06/06 04:59:27;;;;;;;35.33;16.40;;;;;;;;;;5068917;28;20139;-60
2023/06/06 05:01:55;;;;;;;32.70;17.40;;;;;;;;;;5068407;28;20568;-60
2023/06/06 05:04:21;;;;;;;42.63;18.67;;;;;;;;;;5068696;28;20049;-60
2023/06/06 05:06:47;;;;;;;32.77;16.40;;;;;;;;;;5069185;28;20084;-60
2023/06/06 05:09:13;;;;;;;35.07;16.37;;;;;;;;;;5068411;28;20040;-60
2023/06/06 05:11:45;;;;;;;39.10;16.63;;;;;;;;;;5068348;28;20430;-60
2023/06/06 05:14:11;;;;;;;42.87;16.97;;;;;;;;;;5068703;28;20500;-60
2023/06/06 05:16:37;;;;;;;35.87;16.53;;;;;;;;;;5068530;28;20143;-60
2023/06/06 05:19:03;;;;;;;26.73;14.10;;;;;;;;;;5068607;28;20135;-61
2023/06/06 05:21:30;;;;;;;28.60;15.87;;;;;;;;;;5068732;28;20055;-60
2023/06/06 05:23:58;;;;;;;42.47;16.53;;;;;;;;;;5067327;28;20048;-61
2023/06/06 05:26:25;;;;;;;37.80;17.50;;;;;;;;;;5068122;28;20319;-60
2023/06/06 05:28:52;;;;;;;36.00;17.10;;;;;;;;;;5067475;28;20470;-60
2023/06/06 05:31:21;;;;;;;33.27;16.27;;;;;;;;;;5067234;28;20517;-61
2023/06/06 05:33:47;;;;;;;24.50;13.17;;;;;;;;;;5068722;28;20087;-60
2023/06/06 05:36:14;;;;;;;33.97;15.73;;;;;;;;;;5063728;28;20037;-61
2023/06/06 05:38:41;;;;;;;29.30;15.73;;;;;;;;;;5068877;28;20419;-60
2023/06/06 05:41:07;;;;;;;33.60;15.33;;;;;;;;;;5068699;28;20143;-60
2023/06/06 05:43:33;;;;;;;31.97;15.87;;;;;;;;;;5068715;28;20070;-60
2023/06/06 05:46:01;;;;;;;30.40;13.83;;;;;;;;;;5067885;28;20048;-61
2023/06/06 05:48:27;;;;;;;30.77;14.33;;;;;;;;;;5058644;28;20059;-61
2023/06/06 05:50:53;;;;;;;30.43;13.47;;;;;;;;;;5068762;28;20510;-61
2023/06/06 05:53:21;;;;;;;26.27;12.13;;;;;;;;;;5068168;28;20098;-61
2023/06/06 05:55:47;;;;;;;33.53;12.43;;;;;;;;;;5067577;28;20333;-61
2023/06/06 05:58:13;;;;;;;24.83;12.10;;;;;;;;;;5066743;28;20094;-61
2023/06/06 06:00:39;;;;;;;22.30;11.97;;;;;;;;;;5067856;28;20475;-61
2023/06/06 06:03:07;;;;;;;20.33;10.83;;;;;;;;;;5068402;28;20063;-61
2023/06/06 06:05:33;;;;;;;26.77;10.70;;;;;;;;;;5067643;28;20048;-61
2023/06/06 06:08:00;;;;;;;29.80;12.97;;;;;;;;;;5067250;28;20049;-61
2023/06/06 06:10:30;;;;;;;26.47;10.63;;;;;;;;;;5067862;28;20179;-61
2023/06/06 06:12:56;;;;;;;22.23;11.27;;;;;;;;;;5067581;28;20041;-61
2023/06/06 06:15:23;;;;;;;25.83;12.77;;;;;;;;;;5069831;28;20110;-61
2023/06/06 06:17:49;;;;;;;22.00;11.00;;;;;;;;;;5070434;28;20048;-61
2023/06/06 06:20:15;;;;;;;18.90;11.70;;;;;;;;;;5072242;28;20037;-60
2023/06/06 06:22:42;;;;;;;23.80;12.07;;;;;;;;;;5072213;28;20489;-60
2023/06/06 06:25:12;;;;;;;22.47;10.50;;;;;;;;;;5071885;28;20445;-61
2023/06/06 06:27:38;;;;;;;21.47;10.77;;;;;;;;;;5071467;28;20044;-60
2023/06/06 06:30:05;;;;;;;19.37;10.60;;;;;;;;;;5070726;28;20040;-60
2023/06/06 06:32:33;;;;;;;22.83;9.87;;;;;;;;;;5071385;28;20056;-61
2023/06/06 06:35:00;;;;;;;20.40;9.93;;;;;;;;;;5071479;28;20051;-60
2023/06/06 06:37:26;;;;;;;19.53;10.57;;;;;;;;;;5071157;28;20151;-60
2023/06/06 06:39:52;;;;;;;18.63;9.53;;;;;;;;;;5071054;28;20043;-60
2023/06/06 06:42:18;;;;;;;19.20;8.93;;;;;;;;;;5071698;28;20040;-60
2023/06/06 06:44:44;;;;;;;18.03;8.70;;;;;;;;;;5071533;28;20520;-60
2023/06/06 06:47:10;;;;;;;20.30;10.43;;;;;;;;;;5071184;28;20395;-60
2023/06/06 06:49:38;;;;;;;22.53;9.40;;;;;;;;;;5071611;28;20052;-60
2023/06/06 06:52:05;;;;;;;19.70;9.93;;;;;;;;;;5070690;28;20051;-60
2023/06/06 06:54:34;;;;;;;17.83;8.77;;;;;;;;;;5070849;28;20079;-60
2023/06/06 06:57:00;;;;;;;17.87;10.10;;;;;;;;;;5071009;28;20063;-60
2023/06/06 06:59:26;;;;;;;17.37;8.37;;;;;;;;;;5070532;28;20052;-61
2023/06/06 07:01:52;;;;;;;13.43;8.73;;;;;;;;;;5071312;28;20447;-61
2023/06/06 07:04:19;;;;;;;16.83;8.07;;;;;;;;;;5071132;28;20043;-61
2023/06/06 07:06:46;;;;;;;19.80;8.97;;;;;;;;;;5071183;28;20075;-61
2023/06/06 07:09:13;;;;;;;17.20;8.00;;;;;;;;;;5070191;28;20072;-61
2023/06/06 07:11:39;;;;;;;19.07;8.07;;;;;;;;;;5070930;28;20185;-61
2023/06/06 07:14:05;;;;;;;17.93;8.57;;;;;;;;;;5070940;28;20048;-60
2023/06/06 07:16:34;;;;;;;14.50;8.87;;;;;;;;;;5070626;28;20125;-60
2023/06/06 07:19:00;;;;;;;15.30;6.97;;;;;;;;;;5070820;28;20048;-61
2023/06/06 07:21:26;;;;;;;18.17;7.73;;;;;;;;;;5070098;28;20544;-60
2023/06/06 07:23:52;;;;;;;16.00;6.60;;;;;;;;;;5070386;28;20414;-61
2023/06/06 07:26:19;;;;;;;12.87;7.03;;;;;;;;;;5070667;28;20083;-61
2023/06/06 07:28:46;;;;;;;13.67;7.20;;;;;;;;;;5070733;28;20055;-61
2023/06/06 07:31:13;;;;;;;15.80;7.83;;;;;;;;;;5070228;28;20048;-61
2023/06/06 07:33:40;;;;;;;14.10;6.40;;;;;;;;;;5070253;28;20095;-61
2023/06/06 07:36:06;;;;;;;11.87;5.10;;;;;;;;;;5070406;28;20494;-60
2023/06/06 07:38:32;;;;;;;11.73;5.47;;;;;;;;;;5070461;28;20055;-61
2023/06/06 07:40:58;;;;;;;10.30;5.27;;;;;;;;;;5070285;28;20049;-61
2023/06/06 07:43:24;;;;;;;13.63;5.37;;;;;;;;;;5070144;28;20072;-61
2023/06/06 07:45:50;;;;;;;11.03;5.10;;;;;;;;;;5070061;28;20102;-61
2023/06/06 07:48:16;;;;;;;15.53;6.30;;;;;;;;;;5070522;28;20497;-60
2023/06/06 07:50:43;;;;;;;9.73;5.00;;;;;;;;;;5070113;28;20514;-60
2023/06/06 07:53:12;;;;;;;13.33;4.97;;;;;;;;;;5070038;28;20049;-61
2023/06/06 07:55:38;;;;;;;9.37;4.50;;;;;;;;;;5070178;28;20048;-61
2023/06/06 07:58:10;;;;;;;10.03;5.10;;;;;;;;;;5069799;28;20419;-61
2023/06/06 08:00:45;;;;;;;10.37;4.80;;;;;;;;;;5070119;28;20051;-61
2023/06/06 08:03:14;;;;;;;8.97;4.97;;;;;;;;;;5070098;28;20068;-61
2023/06/06 08:05:40;;;;;;;10.47;4.60;;;;;;;;;;5069689;28;20058;-61
2023/06/06 08:08:06;;;;;;;8.80;5.23;;;;;;;;;;5069904;28;20471;-61
2023/06/06 08:10:33;;;;;;;11.00;5.17;;;;;;;;;;5069535;28;20044;-61
2023/06/06 08:13:03;;;;;;;11.27;5.27;;;;;;;;;;5069743;28;20105;-61
2023/06/06 08:15:29;;;;;;;11.33;5.10;;;;;;;;;;5069835;28;20045;-61
2023/06/06 08:17:56;;;;;;;10.23;5.40;;;;;;;;;;5069757;28;20041;-61
2023/06/06 08:20:22;;;;;;;9.60;4.77;;;;;;;;;;5069181;28;20505;-61
2023/06/06 08:22:51;;;;;;;8.07;4.70;;;;;;;;;;5069611;28;20172;-61
2023/06/06 08:25:17;;;;;;;8.57;4.90;;;;;;;;;;5069186;28;20099;-61
2023/06/06 08:27:44;;;;;;;9.23;4.40;;;;;;;;;;5069268;28;20087;-61
2023/06/06 08:30:10;;;;;;;14.50;5.10;;;;;;;;;;5069559;28;20422;-61
2023/06/06 08:32:37;;;;;;;12.73;5.20;;;;;;;;;;5068835;28;20060;-61
2023/06/06 08:35:03;;;;;;;11.20;5.07;;;;;;;;;;5069112;28;20206;-61
2023/06/06 08:37:32;;;;;;;9.53;4.07;;;;;;;;;;5068167;28;20052;-61
2023/06/06 08:39:58;;;;;;;12.97;5.30;;;;;;;;;;5068639;28;20174;-61
2023/06/06 08:42:25;;;;;;;12.53;4.63;;;;;;;;;;5069154;28;20052;-61
2023/06/06 08:44:53;;;;;;;8.50;4.60;;;;;;;;;;5068996;28;20093;-61
2023/06/06 08:47:23;;;;;;;10.60;4.33;;;;;;;;;;5068993;28;20044;-61
2023/06/06 08:49:50;;;;;;;8.57;4.57;;;;;;;;;;5069248;28;20060;-61
2023/06/06 08:52:16;;;;;;;10.33;4.93;;;;;;;;;;5068234;28;20527;-61
2023/06/06 08:54:42;;;;;;;8.07;4.37;;;;;;;;;;5069307;28;20146;-61
2023/06/06 08:57:08;;;;;;;10.03;5.10;;;;;;;;;;5069083;28;20093;-61
2023/06/06 08:59:38;;;;;;;9.27;4.37;;;;;;;;;;5068915;28;20082;-61
2023/06/06 09:02:06;;;;;;;8.90;4.53;;;;;;;;;;5068495;28;20048;-61
2023/06/06 09:04:33;;;;;;;12.10;4.60;;;;;;;;;;5068412;28;20139;-61
2023/06/06 09:07:04;;;;;;;8.60;4.30;;;;;;;;;;5068600;28;20044;-61
2023/06/06 09:09:32;;;;;;;9.97;4.80;;;;;;;;;;5068924;28;20056;-61
2023/06/06 09:11:59;;;;;;;10.30;4.13;;;;;;;;;;5068579;28;20109;-61
2023/06/06 09:14:25;;;;;;;7.43;4.33;;;;;;;;;;5068941;28;20052;-61
2023/06/06 09:16:54;;;;;;;11.15;5.10;;;;;;;;;;5067992;28;20044;-62
2023/06/06 09:19:25;;;;;;;12.43;4.50;;;;;;;;;;5068502;28;20048;-61
2023/06/06 09:21:51;;;;;;;8.85;3.75;;;;;;;;;;5068331;28;20403;-61
2023/06/06 09:24:17;;;;;;;9.20;4.13;;;;;;;;;;5068518;28;20109;-61
2023/06/06 09:26:43;;;;;;;8.27;4.03;;;;;;;;;;5068550;28;20208;-62
2023/06/06 09:29:11;;;;;;;9.43;4.22;;;;;;;;;;5068445;28;20091;-61
2023/06/06 09:31:38;;;;;;;9.65;4.07;;;;;;;;;;5067739;28;20044;-62
2023/06/06 09:34:04;;;;;;;7.68;4.07;;;;;;;;;;5067915;28;20087;-61
2023/06/06 09:36:34;;;;;;;7.07;4.07;;;;;;;;;;5068277;28;20494;-61
2023/06/06 09:39:05;;;;;;;7.82;4.07;;;;;;;;;;5068092;28;20505;-61
2023/06/06 09:41:31;;;;;;;8.05;4.22;;;;;;;;;;5068426;28;20093;-61
2023/06/06 09:43:57;;;;;;;7.68;4.47;;;;;;;;;;5068421;28;20044;-61
2023/06/06 09:46:24;;;;;;;6.53;4.07;;;;;;;;;;5067907;28;20294;-61
2023/06/06 09:48:54;;;;;;;7.70;3.75;;;;;;;;;;5067808;28;20044;-61
2023/06/06 09:51:20;;;;;;;6.90;4.38;;;;;;;;;;5067729;28;20044;-61
2023/06/06 09:53:50;;;;;;;9.40;3.80;;;;;;;;;;5067689;28;20055;-61
2023/06/06 09:56:21;;;;;;;13.43;4.35;;;;;;;;;;5068168;28;20083;-61
2023/06/06 09:58:51;;;;;;;11.55;4.47;;;;;;;;;;5050184;28;20127;-61
2023/06/06 10:01:17;;;;;;;7.65;3.60;;;;;;;;;;5067990;28;20406;-61
2023/06/06 10:03:43;;;;;;;8.00;3.75;;;;;;;;;;5067216;28;20056;-61
2023/06/06 10:06:09;;;;;;;7.03;4.35;;;;;;;;;;5066969;28;20049;-61
2023/06/06 10:08:36;;;;;;;7.72;4.68;;;;;;;;;;5067776;28;20048;-61
2023/06/06 10:11:02;;;;;;;10.00;4.65;;;;;;;;;;5067080;28;20095;-61
2023/06/06 10:13:29;;;;;;;10.23;4.88;;;;;;;;;;5066776;28;20548;-61
2023/06/06 10:15:56;;;;;;;10.35;3.90;;;;;;;;;;5067576;28;20059;-61
2023/06/06 10:18:22;;;;;;;6.68;3.97;;;;;;;;;;5067465;28;20045;-61
2023/06/06 10:20:49;;;;;;;8.90;4.22;;;;;;;;;;5067524;28;20102;-61
2023/06/06 10:23:15;;;;;;;8.32;4.18;;;;;;;;;;5067261;28;20131;-61
2023/06/06 10:25:42;;;;;;;8.25;3.90;;;;;;;;;;5067451;28;20049;-62
2023/06/06 10:28:17;;;;;;;5.55;3.90;;;;;;;;;;5066795;28;20044;-61
2023/06/06 10:30:43;;;;;;;7.85;4.32;;;;;;;;;;5053164;28;20099;-62
2023/06/06 10:33:23;;;;;;;8.07;4.10;;;;;;;;;;5058279;28;20416;-61
2023/06/06 10:35:53;;;;;;;10.23;4.25;;;;;;;;;;5067812;28;20128;-61
2023/06/06 10:38:19;;;;;;;6.97;3.78;;;;;;;;;;5067478;28;20040;-61
2023/06/06 10:40:55;;;;;;;7.53;3.72;;;;;;;;;;5067744;28;20057;-61
2023/06/06 10:43:33;;;;;;;9.40;4.18;;;;;;;;;;5067363;28;20045;-61
2023/06/06 10:45:59;;;;;;;10.32;4.10;;;;;;;;;;5049632;28;20411;-61
2023/06/06 10:48:42;;;;;;;8.30;3.85;;;;;;;;;;5067241;28;20048;-62
2023/06/06 10:51:09;;;;;;;8.07;3.92;;;;;;;;;;5067320;28;20556;-61
2023/06/06 10:53:35;;;;;;;8.32;4.50;;;;;;;;;;5067378;28;20045;-61
2023/06/06 10:56:03;;;;;;;9.77;3.75;;;;;;;;;;5066970;28;20048;-61
2023/06/06 10:58:30;;;;;;;7.38;3.85;;;;;;;;;;5067534;28;20449;-62
2023/06/06 11:00:59;;;;;;;6.38;3.58;;;;;;;;;;5068151;28;20088;-61
2023/06/06 11:03:36;;;;;;;8.48;4.25;;;;;;;;;;5071110;28;20529;-61
2023/06/06 11:06:02;;;;;;;11.32;4.38;;;;;;;;;;5071025;28;20044;-61
2023/06/06 11:08:35;;;;;;;6.00;3.95;;;;;;;;;;5070856;28;20081;-61
2023/06/06 11:11:16;;;;;;;7.22;3.55;;;;;;;;;;5070941;28;20052;-61
2023/06/06 11:13:59;;;;;;;8.40;4.03;;;;;;;;;;5070778;28;20056;-61
2023/06/06 11:16:28;;;;;;;6.47;3.80;;;;;;;;;;5070094;28;20555;-61
2023/06/06 11:19:00;;;;;;;7.30;4.25;;;;;;;;;;5070663;28;20059;-61
2023/06/06 11:21:27;;;;;;;9.55;4.78;;;;;;;;;;5071142;28;20041;-61
2023/06/06 11:23:53;;;;;;;7.68;4.22;;;;;;;;;;5070534;28;20048;-62
2023/06/06 11:26:20;;;;;;;6.93;3.80;;;;;;;;;;5070165;28;20066;-61
2023/06/06 11:28:46;;;;;;;8.23;4.40;;;;;;;;;;5070890;28;20049;-61
2023/06/06 11:31:16;;;;;;;8.57;4.25;;;;;;;;;;5070338;28;20055;-62
2023/06/06 11:33:43;;;;;;;7.60;3.63;;;;;;;;;;5070412;28;20467;-61
2023/06/06 11:36:09;;;;;;;8.73;3.97;;;;;;;;;;5070428;28;20044;-62
2023/06/06 11:38:35;;;;;;;9.55;4.32;;;;;;;;;;5070266;28;20127;-61
2023/06/06 11:41:05;;;;;;;9.70;4.15;;;;;;;;;;5070184;28;20044;-62
2023/06/06 11:43:31;;;;;;;41.70;8.10;;;;;;;;;;5070384;28;20044;-61
2023/06/06 11:46:06;;;;;;;12.38;5.47;;;;;;;;;;5069978;28;20055;-62
2023/06/06 11:48:33;;;;;;;13.00;5.57;;;;;;;;;;5070143;28;20052;-62
2023/06/06 11:51:12;;;;;;;8.60;3.95;;;;;;;;;;5070174;28;20045;-61
2023/06/06 11:53:38;;;;;;;11.60;4.47;;;;;;;;;;5070245;28;20496;-61
2023/06/06 11:56:05;;;;;;;10.23;5.35;;;;;;;;;;5070199;28;20063;-62
2023/06/06 11:58:33;;;;;;;13.48;6.00;;;;;;;;;;5070056;28;20048;-61
2023/06/06 12:00:59;;;;;;;10.60;4.55;;;;;;;;;;5069555;28;20595;-62
2023/06/06 12:03:27;;;;;;;9.10;4.38;;;;;;;;;;5070248;28;20044;-61
2023/06/06 12:06:00;;;;;;;8.23;4.85;;;;;;;;;;5070110;28;20206;-61
2023/06/06 12:08:26;;;;;;;10.50;4.60;;;;;;;;;;5069943;28;20610;-62
2023/06/06 12:10:52;;;;;;;9.02;5.07;;;;;;;;;;5069439;28;20052;-61
2023/06/06 12:13:31;;;;;;;8.77;5.38;;;;;;;;;;5068631;28;20072;-62
2023/06/06 12:15:57;;;;;;;9.68;4.57;;;;;;;;;;5069639;28;20592;-61
2023/06/06 12:18:24;;;;;;;12.25;4.53;;;;;;;;;;5069351;28;20040;-61
2023/06/06 12:20:50;;;;;;;9.15;4.85;;;;;;;;;;5069707;28;20041;-62
2023/06/06 12:23:26;;;;;;;8.30;3.97;;;;;;;;;;5069753;28;20074;-61
2023/06/06 12:25:55;;;;;;;7.93;3.97;;;;;;;;;;5069143;28;20067;-60
2023/06/06 12:28:21;;;;;;;7.40;4.28;;;;;;;;;;5069349;28;20048;-60
2023/06/06 12:30:51;;;;;;;6.13;3.65;;;;;;;;;;5069422;28;20060;-59
2023/06/06 12:33:18;;;;;;;7.30;3.60;;;;;;;;;;5069411;28;20528;-60
2023/06/06 12:35:45;;;;;;;8.70;4.28;;;;;;;;;;5069195;28;20099;-60
2023/06/06 12:38:20;;;;;;;7.25;4.03;;;;;;;;;;5069283;28;20091;-60
2023/06/06 12:40:56;;;;;;;8.48;4.00;;;;;;;;;;5068684;28;20083;-60
2023/06/06 12:43:22;;;;;;;6.75;3.83;;;;;;;;;;5068822;28;20044;-60
2023/06/06 12:45:48;;;;;;;9.63;4.15;;;;;;;;;;5069166;28;20055;-59
2023/06/06 12:48:15;;;;;;;6.30;4.00;;;;;;;;;;5069345;28;20052;-59
2023/06/06 12:50:43;;;;;;;8.88;4.07;;;;;;;;;;5068815;28;20430;-60
2023/06/06 12:53:12;;;;;;;6.85;3.83;;;;;;;;;;5068893;28;20059;-60
2023/06/06 12:55:38;;;;;;;7.05;4.00;;;;;;;;;;5069148;28;20056;-60
2023/06/06 12:58:05;;;;;;;7.53;4.03;;;;;;;;;;5068595;28;20083;-60
2023/06/06 13:00:31;;;;;;;7.15;3.80;;;;;;;;;;5068800;28;20105;-60
2023/06/06 13:02:58;;;;;;;8.13;4.78;;;;;;;;;;5068791;28;20071;-60
2023/06/06 13:05:24;;;;;;;6.85;4.20;;;;;;;;;;5068897;28;20091;-60
2023/06/06 13:07:50;;;;;;;8.13;4.40;;;;;;;;;;5068909;28;20041;-60
2023/06/06 13:10:16;;;;;;;8.82;4.65;;;;;;;;;;5068672;28;20044;-60
2023/06/06 13:12:42;;;;;;;10.05;4.25;;;;;;;;;;5068681;28;20044;-60
2023/06/06 13:15:11;;;;;;;6.07;3.90;;;;;;;;;;5068535;28;20055;-60
2023/06/06 13:17:38;;;;;;;7.40;4.00;;;;;;;;;;5068483;28;20047;-60
2023/06/06 13:20:06;;;;;;;7.72;4.10;;;;;;;;;;5068077;28;20117;-60
2023/06/06 13:22:32;;;;;;;7.25;4.00;;;;;;;;;;5068339;28;20049;-60
2023/06/06 13:24:58;;;;;;;8.13;4.20;;;;;;;;;;5068395;28;20048;-60
2023/06/06 13:27:24;;;;;;;10.13;4.00;;;;;;;;;;5068543;28;20040;-60
2023/06/06 13:29:50;;;;;;;10.35;4.40;;;;;;;;;;5064652;28;20040;-60
2023/06/06 13:32:16;;;;;;;7.22;4.03;;;;;;;;;;5067667;28;20295;-60
2023/06/06 13:34:42;;;;;;;10.52;3.53;;;;;;;;;;5067726;28;20505;-60
2023/06/06 13:37:09;;;;;;;7.88;4.00;;;;;;;;;;5068568;28;20095;-60
2023/06/06 13:39:35;;;;;;;7.30;4.20;;;;;;;;;;5067737;28;20052;-60
2023/06/06 13:42:01;;;;;;;6.47;3.40;;;;;;;;;;5065416;28;20086;-60
2023/06/06 13:44:27;;;;;;;6.20;3.63;;;;;;;;;;5054130;28;20049;-61
2023/06/06 13:46:53;;;;;;;7.97;3.67;;;;;;;;;;5048367;28;20635;-61
2023/06/06 13:49:19;;;;;;;7.78;3.83;;;;;;;;;;5056420;28;20438;-61
2023/06/06 13:51:45;;;;;;;6.82;3.55;;;;;;;;;;5066583;28;20149;-61
2023/06/06 13:54:12;;;;;;;8.00;4.13;;;;;;;;;;5064123;28;20127;-62
2023/06/06 13:56:47;;;;;;;8.65;3.70;;;;;;;;;;5067313;28;20085;-61
2023/06/06 13:59:14;;;;;;;5.72;3.50;;;;;;;;;;5066445;28;20402;-61
2023/06/06 14:01:42;;;;;;;9.23;3.75;;;;;;;;;;5066506;28;20221;-61
2023/06/06 14:04:08;;;;;;;7.15;4.05;;;;;;;;;;5067886;28;20495;-61
2023/06/06 14:06:35;;;;;;;7.82;3.80;;;;;;;;;;5063835;28;20182;-61
2023/06/06 14:09:02;;;;;;;7.68;3.80;;;;;;;;;;5066705;28;20040;-61
2023/06/06 14:11:29;;;;;;;5.55;3.72;;;;;;;;;;5067982;28;20037;-61
2023/06/06 14:13:55;;;;;;;8.13;3.70;;;;;;;;;;5067039;28;20049;-61
2023/06/06 14:16:21;;;;;;;8.93;3.58;;;;;;;;;;5067943;28;20088;-62
2023/06/06 14:18:53;;;;;;;7.93;4.40;;;;;;;;;;5065376;28;20051;-61
2023/06/06 14:21:27;;;;;;;6.22;3.67;;;;;;;;;;5067013;28;20049;-61
2023/06/06 14:23:53;;;;;;;7.95;3.80;;;;;;;;;;5066139;28;20426;-61
2023/06/06 14:26:20;;;;;;;8.20;3.67;;;;;;;;;;5067863;28;20045;-61
2023/06/06 14:28:46;;;;;;;5.93;4.32;;;;;;;;;;5066764;28;20491;-61
2023/06/06 14:31:12;;;;;;;9.88;4.45;;;;;;;;;;5066987;28;20593;-61